createdAt,value
2022-08-21T00:02:15.087Z,16.10
2022-08-21T00:04:54.466Z,16.10
2022-08-21T00:07:26.125Z,16.20
2022-08-21T00:09:54.134Z,16.20
2022-08-21T00:12:23.471Z,16.20
2022-08-21T00:14:51.408Z,16.20
2022-08-21T00:17:25.087Z,16.30
2022-08-21T00:19:52.976Z,16.40
2022-08-21T00:22:21.057Z,16.50
2022-08-21T00:24:48.997Z,16.40
2022-08-21T00:27:16.973Z,16.50
2022-08-21T00:29:46.550Z,16.40
2022-08-21T00:32:14.443Z,16.30
2022-08-21T00:34:42.510Z,16.10
2022-08-21T00:37:10.738Z,16.00
2022-08-21T00:39:39.075Z,15.90
2022-08-21T00:42:07.269Z,15.80
2022-08-21T00:44:35.227Z,15.70
2022-08-21T00:47:04.721Z,15.60
2022-08-21T00:49:32.703Z,15.50
2022-08-21T00:52:01.282Z,15.60
2022-08-21T00:54:30.199Z,15.60
2022-08-21T00:57:00.731Z,15.60
2022-08-21T00:59:30.181Z,15.60
2022-08-21T01:01:58.103Z,15.50
2022-08-21T01:04:27.354Z,15.50
2022-08-21T01:06:55.954Z,15.40
2022-08-21T01:09:24.708Z,15.40
2022-08-21T01:11:52.783Z,15.40
2022-08-21T01:14:20.662Z,15.30
2022-08-21T01:16:50.286Z,15.40
2022-08-21T01:19:18.850Z,15.40
2022-08-21T01:21:48.111Z,15.30
2022-08-21T01:24:16.106Z,15.30
2022-08-21T01:26:44.617Z,15.30
2022-08-21T01:29:15.409Z,15.20
2022-08-21T01:31:43.459Z,15.30
2022-08-21T01:34:11.907Z,15.20
2022-08-21T01:36:39.873Z,15.20
2022-08-21T01:39:10.118Z,15.20
2022-08-21T01:41:38.113Z,15.10
2022-08-21T01:44:06.734Z,15.00
2022-08-21T01:46:34.901Z,15.00
2022-08-21T01:49:02.993Z,14.90
2022-08-21T01:51:30.942Z,14.80
2022-08-21T01:53:58.940Z,14.70
2022-08-21T01:56:28.787Z,14.60
2022-08-21T01:58:56.827Z,14.60
2022-08-21T02:01:25.567Z,14.50
2022-08-21T02:03:53.607Z,14.50
2022-08-21T02:06:21.603Z,14.60
2022-08-21T02:08:51.452Z,14.60
2022-08-21T02:11:19.592Z,14.50
2022-08-21T02:13:48.843Z,14.40
2022-08-21T02:16:19.209Z,14.30
2022-08-21T02:18:48.266Z,14.20
2022-08-21T02:21:16.418Z,14.10
2022-08-21T02:23:44.463Z,14.10
2022-08-21T02:26:12.743Z,14.00
2022-08-21T02:28:41.365Z,14.00
2022-08-21T02:31:10.873Z,14.00
2022-08-21T02:33:38.723Z,14.00
2022-08-21T02:36:07.094Z,13.90
2022-08-21T02:38:38.934Z,13.90
2022-08-21T02:41:08.508Z,13.90
2022-08-21T02:43:36.622Z,14.00
2022-08-21T02:46:04.776Z,14.00
2022-08-21T02:48:34.762Z,14.10
2022-08-21T02:51:04.658Z,14.00
2022-08-21T02:53:33.007Z,14.00
2022-08-21T02:56:01.973Z,14.00
2022-08-21T02:58:32.287Z,14.00
2022-08-21T03:01:00.322Z,14.00
2022-08-21T03:03:29.038Z,14.10
2022-08-21T03:05:58.442Z,14.20
2022-08-21T03:08:27.708Z,14.10
2022-08-21T03:10:56.144Z,14.20
2022-08-21T03:13:24.521Z,14.20
2022-08-21T03:15:52.635Z,14.20
2022-08-21T03:18:20.887Z,14.20
2022-08-21T03:20:48.903Z,14.20
2022-08-21T03:23:19.161Z,14.10
2022-08-21T03:25:48.643Z,14.10
2022-08-21T03:28:17.393Z,14.00
2022-08-21T03:30:46.387Z,13.80
2022-08-21T03:33:15.441Z,13.80
2022-08-21T03:35:43.766Z,13.70
2022-08-21T03:38:13.557Z,13.60
2022-08-21T03:40:42.963Z,13.70
2022-08-21T03:43:11.041Z,13.70
2022-08-21T03:45:39.978Z,13.70
2022-08-21T03:48:08.783Z,13.70
2022-08-21T03:50:41.061Z,13.70
2022-08-21T03:53:17.608Z,13.60
2022-08-21T03:55:48.238Z,13.50
2022-08-21T03:58:17.570Z,13.50
2022-08-21T04:00:46.212Z,13.50
2022-08-21T04:03:14.223Z,13.50
2022-08-21T04:05:42.473Z,13.50
2022-08-21T04:08:10.472Z,13.50
2022-08-21T04:10:39.265Z,13.50
2022-08-21T04:13:09.551Z,13.50
2022-08-21T04:15:37.568Z,13.40
2022-08-21T04:18:06.417Z,13.40
2022-08-21T04:20:34.687Z,13.30
2022-08-21T04:23:02.738Z,13.30
2022-08-21T04:25:30.747Z,13.30
2022-08-21T04:27:58.981Z,13.40
2022-08-21T04:30:28.976Z,13.40
2022-08-21T04:32:58.305Z,13.40
2022-08-21T04:35:27.103Z,13.50
2022-08-21T04:37:55.096Z,13.50
2022-08-21T04:40:24.894Z,13.50
2022-08-21T04:42:54.307Z,13.60
2022-08-21T04:45:23.527Z,13.60
2022-08-21T04:47:53.540Z,13.70
2022-08-21T04:50:22.236Z,13.80
2022-08-21T04:53:05.271Z,14.00
2022-08-21T04:55:33.386Z,14.30
2022-08-21T04:58:01.973Z,14.60
2022-08-21T05:00:29.877Z,14.90
2022-08-21T05:03:00.252Z,15.30
2022-08-21T05:05:29.939Z,15.70
2022-08-21T05:07:58.681Z,16.00
2022-08-21T05:10:26.698Z,16.40
2022-08-21T05:12:54.635Z,16.60
2022-08-21T05:15:22.910Z,16.90
2022-08-21T05:17:53.733Z,17.20
2022-08-21T05:20:30.646Z,17.60
2022-08-21T05:22:58.989Z,17.90
2022-08-21T05:25:28.204Z,18.30
2022-08-21T05:27:57.368Z,18.80
2022-08-21T05:30:28.530Z,19.40
2022-08-21T05:32:58.783Z,20.00
2022-08-21T05:35:26.821Z,20.50
2022-08-21T05:37:56.195Z,21.10
2022-08-21T05:40:24.315Z,21.60
2022-08-21T05:42:54.594Z,22.10
2022-08-21T05:45:41.765Z,22.60
2022-08-21T05:48:13.092Z,23.10
2022-08-21T05:50:41.114Z,23.60
2022-08-21T05:53:11.465Z,24.00
2022-08-21T05:55:44.834Z,24.40
2022-08-21T05:58:13.865Z,24.90
2022-08-21T06:00:42.799Z,25.30
2022-08-21T06:03:13.196Z,25.60
2022-08-21T06:05:41.210Z,26.10
2022-08-21T06:08:10.665Z,26.50
2022-08-21T06:10:38.656Z,26.80
2022-08-21T06:13:06.620Z,27.10
2022-08-21T06:15:34.555Z,27.50
2022-08-21T06:18:02.965Z,27.90
2022-08-21T06:20:31.020Z,28.30
2022-08-21T06:22:59.733Z,28.70
2022-08-21T06:25:29.378Z,29.10
2022-08-21T06:28:02.368Z,29.60
2022-08-21T06:30:30.279Z,30.10
2022-08-21T06:32:58.500Z,30.50
2022-08-21T06:35:27.097Z,30.80
2022-08-21T06:37:54.967Z,31.20
2022-08-21T06:40:23.120Z,31.70
2022-08-21T06:42:52.537Z,31.80
2022-08-21T06:45:20.426Z,32.20
2022-08-21T06:47:48.286Z,32.60
2022-08-21T06:50:16.221Z,32.90
2022-08-21T06:52:44.115Z,33.30
2022-08-21T06:55:12.341Z,33.50
2022-08-21T06:57:52.580Z,33.70
2022-08-21T07:00:22.790Z,33.80
2022-08-21T07:02:50.680Z,33.50
2022-08-21T07:05:19.001Z,33.40
2022-08-21T07:07:47.361Z,33.40
2022-08-21T07:10:19.881Z,33.60
2022-08-21T07:12:52.597Z,34.00
2022-08-21T07:15:31.646Z,33.80
2022-08-21T07:17:59.769Z,34.20
2022-08-21T07:20:28.388Z,34.80
2022-08-21T07:22:56.545Z,35.30
2022-08-21T07:25:24.498Z,36.00
2022-08-21T07:27:52.430Z,36.80
2022-08-21T07:30:20.529Z,37.60
2022-08-21T07:32:50.854Z,38.10
2022-08-21T07:35:18.919Z,38.10
2022-08-21T07:37:47.699Z,38.00
2022-08-21T07:40:16.404Z,37.50
2022-08-21T07:42:44.814Z,36.60
2022-08-21T07:45:13.009Z,36.40
2022-08-21T07:47:42.263Z,36.60
2022-08-21T07:50:13.119Z,37.20
2022-08-21T07:52:41.309Z,37.50
2022-08-21T07:55:09.833Z,37.90
2022-08-21T07:57:37.767Z,38.10
2022-08-21T08:00:06.463Z,38.60
2022-08-21T08:02:40.569Z,38.60
2022-08-21T08:05:09.388Z,38.80
2022-08-21T08:07:39.094Z,39.70
2022-08-21T08:10:08.733Z,40.50
2022-08-21T08:12:36.799Z,40.50
2022-08-21T08:15:05.107Z,40.30
2022-08-21T08:17:33.291Z,40.70
2022-08-21T08:20:01.782Z,41.00
2022-08-21T08:22:29.890Z,41.60
2022-08-21T08:25:00.603Z,42.50
2022-08-21T08:27:28.498Z,43.40
2022-08-21T08:29:56.575Z,43.80
2022-08-21T08:32:24.515Z,43.50
2022-08-21T08:34:53.444Z,43.40
2022-08-21T08:37:21.611Z,42.20
2022-08-21T08:39:53.353Z,41.40
2022-08-21T08:42:32.219Z,41.80
2022-08-21T08:45:04.021Z,42.30
2022-08-21T08:47:33.114Z,42.40
2022-08-21T08:50:04.436Z,42.80
2022-08-21T08:52:33.877Z,42.90
2022-08-21T08:55:05.207Z,43.60
2022-08-21T08:57:34.869Z,43.90
2022-08-21T09:00:03.699Z,44.30
2022-08-21T09:02:31.819Z,44.30
2022-08-21T09:05:01.284Z,43.80
2022-08-21T09:07:34.187Z,43.60
2022-08-21T09:10:06.176Z,43.70
2022-08-21T09:12:39.979Z,43.40
2022-08-21T09:15:11.184Z,43.70
2022-08-21T09:17:41.981Z,44.40
2022-08-21T09:20:15.107Z,44.10
2022-08-21T09:22:47.778Z,44.30
2022-08-21T09:25:20.685Z,45.20
2022-08-21T09:27:53.038Z,46.40
2022-08-21T09:30:25.441Z,46.70
2022-08-21T09:32:53.472Z,46.70
2022-08-21T09:35:22.224Z,46.80
2022-08-21T09:37:52.668Z,45.80
2022-08-21T09:40:22.973Z,45.10
2022-08-21T09:42:58.062Z,45.20
2022-08-21T09:45:26.129Z,44.80
2022-08-21T09:47:54.158Z,45.10
2022-08-21T09:50:23.367Z,45.90
2022-08-21T09:52:52.845Z,46.10
2022-08-21T09:55:39.711Z,45.80
2022-08-21T09:58:11.238Z,45.20
2022-08-21T10:00:39.419Z,45.30
2022-08-21T10:03:11.462Z,45.60
2022-08-21T10:05:39.745Z,44.80
2022-08-21T10:08:17.875Z,42.30
2022-08-21T10:10:45.855Z,41.50
2022-08-21T10:13:19.280Z,42.30
2022-08-21T10:15:52.950Z,43.20
2022-08-21T10:18:24.210Z,43.50
2022-08-21T10:20:56.094Z,44.90
2022-08-21T10:23:30.729Z,46.10
2022-08-21T10:26:13.111Z,45.60
2022-08-21T10:28:46.258Z,45.40
2022-08-21T10:31:17.737Z,46.30
2022-08-21T10:33:48.511Z,47.30
2022-08-21T10:36:18.920Z,47.00
2022-08-21T10:39:23.371Z,45.60
2022-08-21T10:41:54.618Z,45.10
2022-08-21T10:44:32.190Z,45.60
2022-08-21T10:47:03.946Z,44.30
2022-08-21T10:49:37.976Z,43.50
2022-08-21T10:52:16.500Z,43.50
2022-08-21T10:54:53.291Z,44.00
2022-08-21T10:57:29.869Z,44.40
2022-08-21T11:00:03.939Z,43.70
2022-08-21T11:02:33.970Z,43.60
2022-08-21T11:05:04.464Z,43.30
2022-08-21T11:07:34.690Z,43.80
2022-08-21T11:10:04.179Z,44.50
2022-08-21T11:12:36.314Z,44.50
2022-08-21T11:15:09.020Z,44.70
2022-08-21T11:18:01.620Z,44.40
2022-08-21T11:20:31.254Z,42.50
2022-08-21T11:23:04.059Z,42.10
2022-08-21T11:25:36.670Z,41.00
2022-08-21T11:28:12.158Z,40.70
2022-08-21T11:30:46.721Z,41.20
2022-08-21T11:33:24.695Z,41.40
2022-08-21T11:35:54.727Z,42.00
2022-08-21T11:38:29.224Z,42.60
2022-08-21T11:41:09.205Z,42.40
2022-08-21T11:43:39.642Z,42.30
2022-08-21T11:46:19.540Z,41.80
2022-08-21T11:48:52.236Z,42.40
2022-08-21T11:51:23.269Z,42.60
2022-08-21T11:53:55.508Z,42.50
2022-08-21T11:56:25.792Z,43.50
2022-08-21T11:58:55.458Z,43.20
2022-08-21T12:01:30.286Z,42.20
2022-08-21T12:03:59.972Z,41.40
2022-08-21T12:06:32.106Z,40.90
2022-08-21T12:09:01.387Z,40.10
2022-08-21T12:11:30.999Z,39.90
2022-08-21T12:14:01.308Z,41.10
2022-08-21T12:16:34.540Z,42.60
2022-08-21T12:19:06.322Z,43.20
2022-08-21T12:21:34.783Z,43.40
2022-08-21T12:24:04.820Z,43.30
2022-08-21T12:26:34.394Z,43.40
2022-08-21T12:29:14.097Z,43.00
2022-08-21T12:31:57.312Z,42.70
2022-08-21T12:34:26.743Z,42.60
2022-08-21T12:36:57.839Z,42.10
2022-08-21T12:39:27.259Z,41.60
2022-08-21T12:42:02.696Z,41.70
2022-08-21T12:44:35.791Z,41.70
2022-08-21T12:47:07.243Z,41.70
2022-08-21T12:49:37.689Z,42.30
2022-08-21T12:52:10.044Z,41.90
2022-08-21T12:54:40.526Z,41.40
2022-08-21T12:57:09.432Z,41.00
2022-08-21T12:59:39.732Z,40.80
2022-08-21T13:02:14.573Z,40.50
2022-08-21T13:04:43.161Z,39.40
2022-08-21T13:07:13.265Z,38.30
2022-08-21T13:09:43.954Z,38.00
2022-08-21T13:12:12.008Z,37.80
2022-08-21T13:14:45.240Z,38.00
2022-08-21T13:17:23.230Z,38.40
2022-08-21T13:19:57.763Z,39.00
2022-08-21T13:22:33.454Z,39.10
2022-08-21T13:25:07.265Z,38.80
2022-08-21T13:27:36.021Z,39.00
2022-08-21T13:30:08.744Z,39.50
2022-08-21T13:32:39.763Z,39.20
2022-08-21T13:35:16.726Z,37.80
2022-08-21T13:37:45.475Z,37.50
2022-08-21T13:40:15.947Z,37.30
2022-08-21T13:42:44.922Z,37.10
2022-08-21T13:45:16.197Z,36.90
2022-08-21T13:47:47.247Z,36.60
2022-08-21T13:50:15.879Z,36.80
2022-08-21T13:52:52.367Z,36.80
2022-08-21T13:55:20.251Z,37.20
2022-08-21T13:57:48.383Z,37.60
2022-08-21T14:00:18.536Z,38.00
2022-08-21T14:02:49.586Z,38.60
2022-08-21T14:05:18.978Z,39.30
2022-08-21T14:07:47.989Z,39.80
2022-08-21T14:10:17.735Z,40.00
2022-08-21T14:12:48.537Z,39.90
2022-08-21T14:15:17.469Z,39.80
2022-08-21T14:17:45.486Z,39.70
2022-08-21T14:20:28.279Z,39.50
2022-08-21T14:22:56.680Z,39.30
2022-08-21T14:25:32.444Z,38.80
2022-08-21T14:28:05.289Z,38.70
2022-08-21T14:30:39.048Z,38.80
2022-08-21T14:33:11.830Z,39.40
2022-08-21T14:35:41.357Z,39.50
2022-08-21T14:38:19.132Z,39.10
2022-08-21T14:40:48.818Z,38.30
2022-08-21T14:43:16.827Z,37.90
2022-08-21T14:45:44.918Z,37.50
2022-08-21T14:48:14.695Z,37.50
2022-08-21T14:50:44.512Z,36.70
2022-08-21T14:53:12.460Z,36.00
2022-08-21T14:55:55.133Z,35.60
2022-08-21T14:58:24.750Z,36.00
2022-08-21T15:00:53.299Z,36.70
2022-08-21T15:03:22.557Z,37.40
2022-08-21T15:05:51.868Z,38.00
2022-08-21T15:08:20.125Z,38.30
2022-08-21T15:11:10.424Z,39.00
2022-08-21T15:13:36.490Z,39.60
2022-08-21T15:16:05.074Z,39.00
2022-08-21T15:18:33.128Z,38.20
2022-08-21T15:21:02.704Z,37.90
2022-08-21T15:23:30.567Z,38.30
2022-08-21T15:25:59.806Z,38.60
2022-08-21T15:28:31.767Z,38.30
2022-08-21T15:31:01.193Z,38.20
2022-08-21T15:33:29.544Z,38.60
2022-08-21T15:35:57.461Z,38.70
2022-08-21T15:38:26.832Z,38.80
2022-08-21T15:40:55.635Z,38.10
2022-08-21T15:43:30.124Z,38.00
2022-08-21T15:45:59.888Z,37.80
2022-08-21T15:48:28.046Z,37.70
2022-08-21T15:50:56.140Z,37.20
2022-08-21T15:53:24.371Z,36.40
2022-08-21T15:55:55.312Z,35.80
2022-08-21T15:58:23.680Z,35.50
2022-08-21T16:00:51.803Z,35.00
2022-08-21T16:03:22.605Z,34.40
2022-08-21T16:05:53.178Z,34.00
2022-08-21T16:08:21.342Z,33.70
2022-08-21T16:10:49.922Z,33.80
2022-08-21T16:13:23.402Z,34.30
2022-08-21T16:15:51.529Z,34.70
2022-08-21T16:18:20.063Z,35.30
2022-08-21T16:20:48.442Z,34.60
2022-08-21T16:23:16.501Z,34.50
2022-08-21T16:25:44.657Z,34.40
2022-08-21T16:28:14.059Z,34.50
2022-08-21T16:30:44.699Z,34.60
2022-08-21T16:33:16.801Z,34.50
2022-08-21T16:35:44.723Z,34.50
2022-08-21T16:38:12.691Z,34.20
2022-08-21T16:40:40.846Z,34.00
2022-08-21T16:43:08.760Z,33.70
2022-08-21T16:45:36.647Z,33.50
2022-08-21T16:48:09.641Z,33.40
2022-08-21T16:50:38.095Z,33.40
2022-08-21T16:53:06.900Z,33.40
2022-08-21T16:55:36.028Z,33.00
2022-08-21T16:58:05.778Z,32.60
2022-08-21T17:00:33.800Z,32.20
2022-08-21T17:03:02.530Z,32.00
2022-08-21T17:05:31.823Z,31.80
2022-08-21T17:07:59.846Z,31.80
2022-08-21T17:10:27.788Z,31.50
2022-08-21T17:12:56.858Z,31.00
2022-08-21T17:15:26.679Z,30.70
2022-08-21T17:17:56.458Z,30.30
2022-08-21T17:20:26.148Z,30.10
2022-08-21T17:22:55.614Z,29.70
2022-08-21T17:25:23.608Z,29.50
2022-08-21T17:27:52.023Z,29.30
2022-08-21T17:30:20.990Z,29.10
2022-08-21T17:32:50.658Z,28.80
2022-08-21T17:35:18.743Z,28.60
2022-08-21T17:37:46.803Z,28.40
2022-08-21T17:40:16.282Z,28.10
2022-08-21T17:42:45.055Z,27.90
2022-08-21T17:45:14.110Z,27.70
2022-08-21T17:47:42.237Z,27.60
2022-08-21T17:50:11.300Z,27.40
2022-08-21T17:52:39.652Z,27.30
2022-08-21T17:55:07.764Z,27.10
2022-08-21T17:57:37.279Z,26.90
2022-08-21T18:00:06.580Z,26.80
2022-08-21T18:02:40.061Z,26.60
2022-08-21T18:05:09.765Z,26.40
2022-08-21T18:07:38.479Z,26.30
2022-08-21T18:10:08.245Z,26.20
2022-08-21T18:12:38.781Z,26.10
2022-08-21T18:15:07.694Z,26.00
2022-08-21T18:17:35.725Z,25.80
2022-08-21T18:20:05.067Z,25.70
2022-08-21T18:22:32.977Z,25.50
2022-08-21T18:25:01.290Z,25.40
2022-08-21T18:27:29.899Z,25.30
2022-08-21T18:30:00.507Z,25.20
2022-08-21T18:32:31.069Z,25.10
2022-08-21T18:35:00.427Z,25.00
2022-08-21T18:37:28.914Z,24.90
2022-08-21T18:39:57.066Z,24.70
2022-08-21T18:42:28.820Z,24.50
2022-08-21T18:44:58.686Z,24.40
2022-08-21T18:47:33.506Z,24.20
2022-08-21T18:50:01.737Z,24.20
2022-08-21T18:52:30.672Z,24.10
2022-08-21T18:54:58.742Z,24.00
2022-08-21T18:57:34.697Z,23.80
2022-08-21T19:00:08.118Z,23.60
2022-08-21T19:02:37.818Z,23.60
2022-08-21T19:05:12.519Z,23.50
2022-08-21T19:07:42.349Z,23.50
2022-08-21T19:10:27.759Z,23.40
2022-08-21T19:12:58.296Z,23.30
2022-08-21T19:15:26.601Z,23.00
2022-08-21T19:17:56.286Z,22.90
2022-08-21T19:20:26.192Z,22.90
2022-08-21T19:22:55.436Z,22.80
2022-08-21T19:25:33.255Z,22.70
2022-08-21T19:28:03.087Z,22.70
2022-08-21T19:30:31.854Z,22.50
2022-08-21T19:33:01.712Z,22.50
2022-08-21T19:35:29.657Z,22.40
2022-08-21T19:37:57.681Z,22.40
2022-08-21T19:40:25.897Z,22.30
2022-08-21T19:42:54.082Z,22.20
2022-08-21T19:45:22.234Z,22.20
2022-08-21T19:47:58.680Z,22.20
2022-08-21T19:50:28.088Z,22.20
2022-08-21T19:52:56.162Z,22.10
2022-08-21T19:55:24.396Z,22.00
2022-08-21T19:57:53.824Z,21.90
2022-08-21T20:00:22.013Z,21.80
2022-08-21T20:02:52.047Z,21.70
2022-08-21T20:05:20.116Z,21.60
2022-08-21T20:07:50.844Z,21.60
2022-08-21T20:10:18.811Z,21.50
2022-08-21T20:12:49.385Z,21.30
2022-08-21T20:15:19.976Z,21.20
2022-08-21T20:17:48.001Z,21.20
2022-08-21T20:20:17.323Z,21.10
2022-08-21T20:22:45.272Z,20.90
2022-08-21T20:25:14.950Z,20.80
2022-08-21T20:27:42.941Z,20.70
2022-08-21T20:30:11.522Z,20.70
2022-08-21T20:32:39.904Z,20.60
2022-08-21T20:35:12.429Z,20.50
2022-08-21T20:37:42.156Z,20.30
2022-08-21T20:40:11.529Z,20.20
2022-08-21T20:42:42.777Z,20.10
2022-08-21T20:45:13.431Z,20.00
2022-08-21T20:47:41.416Z,20.00
2022-08-21T20:53:03.058Z,19.80
2022-08-21T20:55:32.835Z,19.70
2022-08-21T20:58:05.069Z,19.60
2022-08-21T21:00:34.969Z,19.50
2022-08-21T21:03:07.327Z,19.50
2022-08-21T21:05:37.642Z,19.40
2022-08-21T21:08:08.817Z,19.30
2022-08-21T21:10:45.266Z,19.20
2022-08-21T21:13:16.807Z,19.10
2022-08-21T21:15:45.836Z,19.10
2022-08-21T21:18:15.735Z,19.00
2022-08-21T21:20:47.829Z,19.00
2022-08-21T21:23:19.554Z,18.90
2022-08-21T21:25:53.967Z,18.90
2022-08-21T21:28:31.756Z,18.90
2022-08-21T21:33:51.007Z,18.90
2022-08-21T21:36:23.500Z,18.90
2022-08-21T21:38:54.235Z,18.90
2022-08-21T21:41:28.405Z,18.80
2022-08-21T21:44:09.273Z,18.80
2022-08-21T21:46:46.137Z,18.80
2022-08-21T21:49:49.472Z,18.70
2022-08-21T21:52:29.464Z,18.70
2022-08-21T21:55:05.748Z,18.60
2022-08-21T21:57:52.348Z,18.60
2022-08-21T22:00:26.652Z,18.50
2022-08-21T22:02:59.636Z,18.50
2022-08-21T22:05:37.399Z,18.50
2022-08-21T22:08:09.246Z,18.50
2022-08-21T22:10:43.853Z,18.60
2022-08-21T22:13:26.323Z,18.60
2022-08-21T22:16:05.499Z,18.60
2022-08-21T22:18:36.481Z,18.60
2022-08-21T22:21:15.458Z,18.60
2022-08-21T22:23:44.885Z,18.60
2022-08-21T22:26:16.701Z,18.60
2022-08-21T22:28:46.432Z,18.60
2022-08-21T22:31:18.350Z,18.60
2022-08-21T22:34:01.073Z,18.60
2022-08-21T22:36:31.493Z,18.50
2022-08-21T22:38:59.443Z,18.40
2022-08-21T22:41:28.992Z,18.30
2022-08-21T22:43:57.768Z,18.30
2022-08-21T22:46:32.644Z,18.30
2022-08-21T22:49:07.586Z,18.30
2022-08-21T22:51:37.454Z,18.30
2022-08-21T22:56:59.396Z,18.40
2022-08-21T22:59:29.395Z,18.40
2022-08-21T23:02:01.399Z,18.40
2022-08-21T23:04:30.056Z,18.40
2022-08-21T23:06:59.214Z,18.40
2022-08-21T23:09:32.940Z,18.40
2022-08-21T23:12:02.753Z,18.30
2022-08-21T23:14:54.696Z,18.30
2022-08-21T23:17:30.403Z,18.20
2022-08-21T23:20:02.494Z,18.20
2022-08-21T23:22:37.239Z,18.20
2022-08-21T23:25:16.794Z,18.20
2022-08-21T23:27:54.332Z,18.20
2022-08-21T23:30:27.445Z,18.10
2022-08-21T23:33:04.524Z,18.10
2022-08-21T23:35:58.757Z,18.00
2022-08-21T23:38:33.194Z,18.00
2022-08-21T23:41:10.954Z,18.00
2022-08-21T23:43:45.301Z,17.90
2022-08-21T23:46:21.112Z,17.80
2022-08-21T23:49:17.801Z,17.80
2022-08-21T23:51:51.810Z,17.80
2022-08-21T23:54:23.349Z,17.80
2022-08-21T23:56:58.525Z,17.90
2022-08-21T23:59:31.877Z,17.80
